Amaranth, Pennsylvania
Current Conditions -  °F | °C
As of 12:53 AM on Monday 26 Jan 2015 (Local Time) from KHGR Reporting Station
Light Rain Light Rain  
Wind Chill: 29°   Ceiling: 1600
Heat Index: 36°   Visibility: 6mi
Dew Point: 33°   Wind: 9mph
Humidity: 89%   Direction: 40°NE
Pressure: 29.82"   Gusts: NA
Location:  39.7745°N, 78.2026°W
Report Text: KHGR 260553Z AUTO 04008KT 6SM -RA BR BKN016 BKN022 OVC039 02/01 A2982 RMK AO2 UPE0456B33E39RAB39 SLP113 P0001 60006 T00220006 10028 20022 58003
Loading
Personal Weather Stations






























Interactive Weather Map New forecast layout! Learn more

10-Day Weather Forecast

Advertisements
Track Severe Weather on mobile